x

9410840 - Santa Monica Pier (icac1) Weather Station

1:30 - Mon 4th May 2015 All times are PDT. -7 hours from GMT.

  • Wind
    11mph, 13mph gusts
  • Sea Temp 64°f
  • Ar Temp 58°f
  • Sea Pressure 1015.7mb
  • 9410840 - Santa Monica Pier
  • 9410840 - Santa Monica Pier

More Historic Weather Station data

Upgrade to MSW Pro to gain access to the past 30 days of data for over 8000 Wavebouys and Weather Stations around the globe.

Join Pro

Comparision Forecast

View Surf forecast
   
Seg 05/04 1:30 11 13 mph 1015.7mb 64f 58f
1:24 11 13 mph 1015.8mb 64f 58f
1:18 10 11 mph 1015.8mb 64f 58f
1:12 11 13 mph 1015.8mb 64f 58f
1:06 11
mph
1015.8mb 63f 58f
1:00 11 13 mph 1015.8mb 63f 58f
12:54 10 11 mph 1015.8mb 63f 59f
12:48 10 11 mph 1015.8mb 63f 58f
12:42 10
mph
1015.8mb 63f 59f
12:36 7 8 mph 1015.9mb 63f 59f
12:30 7 9 mph 1015.9mb 63f 59f
12:24 7 8 mph 1015.9mb 63f 59f
12:18 7 8 mph 1015.9mb 63f 59f
12:12 7 8 mph 1015.9mb 63f 59f
12:06 6 9 mph 1015.9mb 63f 59f
12:00 7 8 mph 1015.8mb 63f 59f
11:54 7 8 mph 1015.9mb 63f 59f
11:48 6 7 mph 1015.9mb 63f 59f
11:42 6 7 mph 1015.9mb 63f 59f
11:36 6 7 mph 1015.9mb 63f 59f
11:30 6 7 mph 1016mb 63f 59f
11:24 6 8 mph 1016mb 62f 59f
11:18 7 8 mph 1015.9mb 62f 59f
11:12 6 7 mph 1015.8mb 62f 59f
11:06 7
mph
1015.8mb 62f 59f
11:00 6 8 mph 1015.8mb 62f 58f
10:54 7 8 mph 1015.7mb 62f 58f
10:48 7 8 mph 1015.7mb 62f 58f
10:42 8
mph
1015.7mb 62f 58f
10:36 7 8 mph 1015.6mb 62f 58f
10:30 7 8 mph 1015.6mb 62f 58f
10:24 8
mph
1015.6mb 62f 58f
10:06 8 9 mph 1015.4mb 62f 58f
10:00 7 8 mph 1015.4mb 62f 58f
9:54 7 9 mph 1015.3mb 62f 58f
9:48 7 8 mph 1015.3mb 62f 58f
9:36 7
mph
1015.2mb 62f 58f
9:30 5 6 mph 1015.2mb 62f 58f
9:24 3 5 mph 1015.1mb 62f 58f
9:18 3 5 mph 1015.1mb 62f 58f
9:12 3 5 mph 1015.1mb 62f 58f
9:06 3 6 mph 1015mb 62f 58f
9:00 5 6 mph 1015mb 62f 58f
8:54 5 6 mph 1014.9mb 62f 58f
8:48 6 8 mph 1014.8mb 62f 58f
8:42 6 9 mph 1014.8mb 62f 58f
8:36 6 8 mph 1014.8mb 62f 59f
8:30 6 8 mph 1014.7mb 62f 59f
8:18 6 7 mph 1014.7mb 62f 59f
8:12 6
mph
1014.7mb 62f 59f
8:06 3 5 mph 1014.6mb 62f 59f
8:00 2 6 mph 1014.6mb 62f 58f
7:54 6 8 mph 1014.5mb 62f 58f
7:48 5 6 mph 1014.4mb 62f 58f
7:36 5 6 mph 1014.3mb 62f 58f
7:24 6 7 mph 1014.2mb 61f 57f
7:18 5 7 mph 1014.1mb 61f 57f
7:12 5 6 mph 1014mb 61f 57f
7:06 5 7 mph 1014mb 61f 57f
7:00 6 7 mph 1013.9mb 61f 57f
6:54 5 7 mph 1013.9mb 61f 57f
6:48 6 7 mph 1013.8mb 61f 57f
6:42 5 6 mph 1013.8mb 61f 57f
6:36 5
mph
1013.7mb 61f 57f
6:30 5
mph
1013.7mb 61f 57f
6:24 5 6 mph 1013.7mb 61f 57f
6:18 5 6 mph 1013.6mb 61f 57f
6:00 3 5 mph 1013.4mb 61f 57f
5:54 5 6 mph 1013.4mb 61f 57f
5:48 3 6 mph 1013.4mb 61f 57f
5:42 5 6 mph 1013.4mb 62f 57f
5:30 5 6 mph 1013.3mb 62f 57f
5:24 5 6 mph 1013.2mb 62f 56f
5:18 5 6 mph 1013.2mb 62f 56f
5:12 5 6 mph 1013.1mb 62f 56f
5:06 6 7 mph 1013.2mb 62f 56f
5:00 5 6 mph 1013.1mb 62f 56f
4:48 6 7 mph 1013.1mb 62f 56f
4:42 5 6 mph 1013.1mb 62f 56f
4:36 5 7 mph 1013.1mb 62f 56f
4:30 5 6 mph 1013.1mb 62f 56f
4:24 5 7 mph 1013.1mb 62f 56f
4:18 6 7 mph 1013.1mb 62f 56f
4:12 6 8 mph 1013.1mb 62f 56f
4:06 6 8 mph 1013.1mb 62f 56f
4:00 7 10 mph 1013.1mb 62f 56f
3:54 7 8 mph 1013.1mb 62f 56f
3:48 7 9 mph 1013.2mb - -
3:42 7 9 mph 1013.2mb 61f 56f
3:36 7 9 mph 1013.2mb 61f 56f
3:30 7 10 mph 1013.3mb 61f 56f
3:24 9 10 mph 1013.3mb 61f 56f
3:18 7 10 mph 1013.3mb 61f 57f
3:12 7 9 mph 1013.2mb 61f 57f
3:06 7 9 mph 1013.2mb 61f 57f
3:00 9 10 mph 1013.2mb 61f 57f
2:54 9 11 mph 1013.2mb 61f 57f
2:48 8 11 mph 1013.2mb 61f 57f
2:42 9 13 mph 1013.3mb 61f 57f
2:36 8 14 mph 1013.2mb 61f 57f
2:30 9 13 mph 1013.2mb 61f 57f
2:24 8 14 mph 1013.2mb 61f 57f
2:18 11 16 mph 1013.2mb 61f 57f
2:12 8 13 mph 1013.1mb 61f 57f
2:06 8 11 mph 1013.2mb 61f 57f
2:00 9 14 mph 1013.1mb 61f 57f
1:54 8 11 mph 1013.2mb 62f 57f
1:48 7 15 mph 1013.1mb 62f 57f
1:42 11 14 mph 1013.1mb 62f 57f
1:36 8 11 mph 1013.2mb 62f 57f
1:30 11 14 mph 1013.1mb 62f 57f
1:24 9 14 mph 1013.1mb 63f 58f
1:18 9 13 mph 1013.1mb 64f 58f
1:12 7 14 mph 1013.1mb 64f 58f
1:06 8 11 mph 1013.1mb 64f 58f
1:00 7 10 mph 1013.1mb 64f 58f
12:54 8 10 mph 1013.1mb 64f 58f
12:48 8 13 mph 1013.1mb 64f 58f
12:42 8 11 mph 1013.1mb 64f 58f
12:36 8 11 mph 1013.1mb 64f 58f
12:30 8 10 mph 1013mb 64f 58f
12:24 8 9 mph 1013mb 64f 58f
12:18 7 10 mph 1012.9mb 64f 58f
12:12 5 8 mph 1012.9mb 64f 58f
12:06 5 6 mph 1012.8mb 64f 58f
12:00 5 7 mph 1012.8mb 64f 58f
Dom 05/03 11:48 6 8 mph 1012.6mb 64f 59f
11:24 6 8 mph - - -
10:54 6 8 mph 1012.3mb 65f -
10:48 6 7 mph 1012.2mb 65f 60f
10:42 5 6 mph 1012.2mb 65f 60f
10:30 6 7 mph - - -
10:24 5 6 mph 1012.2mb 65f 60f
10:18 3 6 mph 1012.1mb 65f 60f
10:12 3
mph
1012mb 65f 60f
10:00 1 3 mph 1011.9mb 65f 60f
9:54 2 3 mph 1011.8mb 65f 60f
9:48 2 6 mph 1011.8mb 65f 60f
9:42 6 8 mph 1011.8mb 65f 60f
9:36 7 10 mph 1011.7mb 65f 60f
9:30 8 10 mph 1011.6mb 65f 60f
9:24 6 8 mph 1011.6mb 65f 60f
9:18 9 11 mph 1011.4mb 65f 60f
9:12 10 13 mph 1011.3mb 65f 60f
9:00 14 16 mph 1011.2mb 65f 59f
8:54 14 16 mph 1011.2mb 65f 59f
8:48 15 18 mph 1011.1mb 65f 59f
8:42 16 18 mph 1011mb 65f 59f
8:36 16 17 mph 1011mb 65f 59f
8:30 17 18 mph 1010.9mb 65f 59f
8:24 17 20 mph 1010.8mb 65f 59f
8:06 16 21 mph 1010.8mb 65f 59f
8:00 17 20 mph 1010.8mb 65f 59f
7:54 17 21 mph 1010.8mb 65f 59f
7:48 18 21 mph 1010.7mb 65f 58f
7:42 18 21 mph 1010.6mb 65f 58f
7:36 18 21 mph 1010.6mb 65f 58f
7:30 18 21 mph 1010.7mb 65f 59f
7:18 20 23 mph 1010.7mb 65f 59f
7:12 21 22 mph 1010.7mb 65f 58f
7:06 20 21 mph 1010.7mb 65f 59f
7:00 16 20 mph 1010.7mb 65f 59f
6:48 17 21 mph 1010.8mb 65f 58f
6:42 17 21 mph 1010.9mb 65f 58f
6:36 20 22 mph 1011mb 65f 58f
6:30 18 22 mph 1011mb 65f 58f
6:24 18 22 mph 1011mb 65f 58f
6:18 18 22 mph 1011.1mb 65f 58f
6:06 18 21 mph 1011.2mb 65f 58f
6:00 18 21 mph 1011.3mb 65f 58f
5:54 18 21 mph 1011.3mb 65f 58f
5:48 18 21 mph 1011.4mb 65f 58f
5:42 18 23 mph 1011.5mb 65f 58f
5:36 18 22 mph 1011.5mb 65f 58f
5:30 20 23 mph 1011.6mb 65f 58f
5:24 20 22 mph 1011.7mb 65f 58f
5:18 20 23 mph 1011.8mb 65f 58f
5:12 20 24 mph 1011.8mb 65f 58f
5:06 20 22 mph 1011.8mb 65f 58f
5:00 21 22 mph 1011.9mb 65f 58f
4:54 18 22 mph 1011.9mb 65f 58f
4:48 20 24 mph 1012mb 65f 58f
4:42 21 24 mph 1012mb 65f 58f
4:36 21 24 mph 1012mb 66f 58f
4:30 22 24 mph 1012mb 66f 58f
4:24 23 24 mph 1012.1mb 66f 58f
4:18 22 24 mph 1012.1mb 66f 58f
4:12 22 24 mph 1012.1mb 66f 58f
4:06 21 24 mph 1012.2mb 66f 58f
4:00 21 23 mph 1012.3mb 66f 58f
3:54 18 22 mph 1012.4mb 65f 58f
3:36 18 22 mph 1012.6mb 66f 58f
3:30 18 21 mph 1012.6mb 66f 58f
3:24 16 20 mph 1012.7mb 66f 58f
3:18 17 21 mph 1012.7mb 65f 58f
3:12 17 21 mph 1012.8mb 65f 58f
3:06 17 21 mph 1012.9mb 65f 58f
3:00 18 21 mph 1013mb 65f 58f
2:48 18 21 mph 1013.1mb 65f 58f
2:42 18 21 mph 1013.2mb 65f 58f
2:36 17 21 mph 1013.3mb 65f 58f
2:30 20 22 mph 1013.3mb 65f 58f
2:24 17 20 mph 1013.4mb 65f 59f
2:18 18 20 mph 1013.5mb 65f 58f
2:12 16 18 mph 1013.5mb 65f 59f
2:06 17 18 mph 1013.6mb 65f 58f
2:00 16 18 mph 1013.6mb 65f 59f
1:48 15 18 mph 1013.7mb 65f 59f
1:42 16 17 mph 1013.6mb 65f 58f
1:36 15 16 mph 1013.7mb 65f 58f
1:30 15 16 mph 1013.8mb 65f 58f
1:24 14 15 mph 1013.8mb 65f 58f
1:18 13 14 mph - - -
1:12 11 14 mph 1014mb 65f 59f
1:06 11 13 mph 1014mb 65f 59f
1:00 11 13 mph 1014.1mb 65f 59f
12:54 11 13 mph 1014.1mb 65f 59f
12:48 11 13 mph 1014mb 65f 60f
12:42 11 14 mph 1014mb 65f 59f
12:36 11 14 mph 1014mb 65f 59f
12:30 13 14 mph 1014.1mb 65f 59f
12:24 13 14 mph 1014.1mb 65f 59f
12:18 13 14 mph 1014.1mb 65f 59f
12:12 13 14 mph 1014.1mb 65f 59f
12:06 11 13 mph 1014.1mb 65f 59f
12:00 13 14 mph 1014.1mb 65f 59f
11:54 11 13 mph 1014.2mb 65f 59f
11:48 13 14 mph 1014.2mb 65f 59f
11:42 13
mph
1014.2mb 65f 59f
11:36 11 14 mph 1014.2mb 64f 59f
11:30 13
mph
1014.1mb 64f 59f
11:24 11 13 mph 1014.1mb 64f 59f
11:06 10 11 mph 1014.1mb 64f 59f
11:00 10 11 mph 1014mb 64f 59f
10:54 10 11 mph 1014mb 64f 59f
10:48 10 11 mph 1014mb 64f 60f
10:42 10 11 mph 1013.9mb 64f 60f
10:36 9 10 mph 1013.9mb 64f 60f
10:30 10 13 mph 1013.8mb 64f 60f
10:24 10 11 mph 1013.8mb 64f 61f
10:18 9
mph
- - -
10:12 8 9 mph 1013.7mb 64f 61f
10:06 7 8 mph 1013.7mb 64f 60f
10:00 8
mph
1013.7mb 64f 60f
9:54 7 8 mph 1013.7mb 64f 60f
9:48 7 8 mph 1013.7mb 64f 60f
9:42 7 8 mph 1013.7mb 64f 60f
9:36 7 8 mph 1013.7mb 64f 60f
9:30 7 8 mph 1013.7mb 64f 60f
9:24 8
mph
1013.7mb 64f 60f
9:18 7 8 mph 1013.7mb 63f -
9:12 8 9 mph 1013.7mb 63f 59f
9:06 9
mph
1013.7mb 64f 59f
9:00 8 9 mph 1013.7mb 64f 59f
8:54 9
mph
1013.6mb 64f 59f
8:48 9 10 mph 1013.5mb 64f 59f
8:42 9 10 mph 1013.5mb 63f 58f
8:36 10
mph
1013.5mb 63f 58f
8:30 9 10 mph 1013.5mb 63f 58f
8:24 9 10 mph 1013.5mb 63f 58f
8:18 8 10 mph 1013.4mb 63f 59f
8:12 9 10 mph 1013.4mb 63f 59f
8:06 7 8 mph 1013.3mb 63f 60f
8:00 8 9 mph 1013.2mb 63f 60f
7:54 7 8 mph 1013.2mb 63f 60f
7:48 5 6 mph 1013.2mb 63f 62f
7:42 2 3 mph 1013.1mb 63f 62f
7:36  -  2 mph 1013mb 63f 62f
7:30 2 6 mph 1013mb 63f 61f
7:24 2 5 mph 1012.9mb 63f 61f
7:18 3 5 mph 1012.8mb 63f 61f
7:12 3 5 mph 1012.8mb 63f 61f
7:00 3 5 mph 1012.7mb 63f 61f
6:54 3 5 mph 1012.6mb 63f 61f
6:48 3 5 mph 1012.5mb 63f 61f
6:42 3 5 mph 1012.4mb 63f 61f
6:30 1 3 mph 1012.3mb 63f 61f
6:24 2 3 mph 1012.2mb 63f 61f
6:18 1 2 mph 1012.2mb 64f 61f
6:12 2 3 mph 1012.3mb 64f 61f
6:06 3 5 mph 1012.2mb 64f 61f
6:00 2 5 mph 1012.2mb 64f 60f
5:54 2 3 mph 1012.2mb 64f 60f
5:48 2 5 mph 1012.2mb 64f 60f
5:36 5 6 mph 1012.1mb 64f 60f
5:30 5 6 mph 1012.1mb 64f 60f
5:24 5 6 mph 1012.1mb 64f 60f
5:18 5 6 mph 1012mb 64f 60f
5:12 5 6 mph 1012mb 64f 60f
5:00 3 6 mph 1012.1mb 64f 60f
4:54 3 5 mph 1012.1mb 64f 60f
4:48 3 5 mph 1012.1mb 64f 60f
4:42 3 6 mph 1012.2mb 64f 60f
4:36 1 2 mph 1012.2mb 64f 59f
4:30 1 3 mph 1012.2mb 64f 59f
4:24 3 6 mph 1012.2mb 64f 59f
4:18 3 5 mph 1012.2mb 64f 59f
4:12 2 3 mph 1012.2mb 64f 59f
4:06 2 3 mph 1012.2mb 64f 59f
4:00 3 6 mph 1012.2mb 64f 58f
3:54 5 6 mph 1012.1mb 64f 58f
3:48 5 6 mph 1012.1mb 64f 58f
3:42 6
mph
1012.2mb 64f 58f
3:36 5 6 mph 1012.2mb 64f 58f
3:30 3 5 mph 1012.3mb 64f 58f
3:24 3
mph
1012.3mb 64f 58f
3:18 3
mph
1012.3mb 64f 58f
3:12 2 5 mph 1012.3mb 64f 58f
3:06 5
mph
1012.3mb 64f 58f
3:00 3 5 mph 1012.3mb 64f 58f
2:54 3 5 mph 1012.3mb 64f 58f
2:48 3
mph
1012.3mb 64f 58f
2:42 2 3 mph 1012.3mb 64f 58f
2:36 2 5 mph 1012.3mb 64f 58f
2:30 2 3 mph 1012.3mb 64f 58f
2:24 2 3 mph 1012.3mb 64f 57f
2:18  -  2 mph 1012.3mb 64f 57f
2:12  -  1 mph 1012.4mb 64f 58f
2:06  -  1 mph 1012.4mb 64f 57f
2:00  -  1 mph 1012.4mb 64f 57f
1:54  -  2 mph 1012.4mb 64f 57f
1:48 2 6 mph 1012.4mb 64f 57f
1:42 3 5 mph 1012.4mb 64f 58f
1:36 5 6 mph 1012.4mb 64f 58f
1:30 6 8 mph 1012.4mb 64f 58f
1:24 7 8 mph 1012.4mb 64f 58f
1:18 7 9 mph 1012.4mb 64f 58f
1:12 8 11 mph 1012.5mb 64f 58f
1:06 10 11 mph 1012.5mb 64f 58f
1:00 9 13 mph 1012.5mb 64f 58f
12:54 10 13 mph 1012.5mb 64f 58f
12:48 10 14 mph 1012.5mb 64f 58f
12:42 11 13 mph 1012.5mb 64f 58f
12:36 10 13 mph 1012.5mb 64f 58f
12:30 11 14 mph 1012.5mb 64f 58f
12:24 11 15 mph 1012.5mb 64f 58f
12:18 11 14 mph 1012.4mb 64f 58f
12:12 10 15 mph 1012.4mb 64f 58f
12:06 13 15 mph 1012.3mb 64f 58f
12:00 13 15 mph 1012.3mb 64f 58f
Sáb 05/02 11:48 13 15 mph 1012.3mb 64f 58f
11:42  -  mph - - 58f
11:24 13 14 mph 1012.2mb - -
11:12 11 14 mph 1012.1mb 64f 58f
11:00 13 14 mph 1011.9mb 64f 59f
10:54 13 15 mph 1011.8mb 64f 59f
10:48 14 15 mph 1011.8mb 64f 59f
10:42 11 14 mph 1011.7mb 64f 59f
10:36 11 16 mph 1011.6mb 65f 60f
10:30 14 16 mph 1011.6mb 64f 60f
10:24 14 15 mph 1011.5mb 64f 60f
10:18 14 16 mph 1011.4mb 63f 60f
10:12 11 14 mph 1011.3mb 63f 61f
10:06 10 14 mph 1011.2mb 63f 61f
10:00 11 14 mph 1011.1mb 62f 61f
9:54 9 13 mph 1011.1mb 63f 61f
9:48 9 11 mph 1011mb 62f 61f
9:42 10 13 mph 1011mb 62f 61f
9:36 9 10 mph 1010.8mb 62f 61f
9:30 11
mph
1010.8mb 62f 61f
9:24 11
mph
1010.7mb 62f 61f
9:18 10 11 mph 1010.6mb 62f 61f
9:12 9 10 mph 1010.5mb 62f 61f
8:54 10 11 mph 1010.2mb 63f 61f
8:48 9 10 mph 1010.1mb 63f 61f
8:42 9 11 mph 1010mb 64f 61f
8:36 10 11 mph 1010mb 64f 61f
8:30 10
mph
1009.8mb 64f 61f
8:24 10 11 mph 1009.8mb 64f 61f
8:18 9 10 mph 1009.7mb 64f 61f
8:12 10 11 mph 1009.6mb 64f 61f
8:06 9 11 mph 1009.6mb 64f 61f
8:00 10 11 mph 1009.5mb 64f 61f
7:54 9 11 mph 1009.5mb 64f 61f
7:48 8 10 mph 1009.4mb 64f 61f
7:42 9 10 mph 1009.3mb 64f 61f
7:36 9 10 mph 1009.2mb 65f 61f
7:30 9 14 mph - - -
7:24 10 14 mph 1009.2mb 65f 62f
7:18 6 9 mph 1009.3mb 65f 62f
7:12 5 7 mph 1009.4mb 65f 62f
7:06 2 5 mph 1009.4mb 65f 63f
7:00 2 8 mph 1009.4mb 65f 63f
6:48 2 9 mph 1009.5mb 66f 63f
6:42 6 13 mph 1009.5mb 66f 63f
6:36 9 15 mph 1009.6mb 66f 62f
6:30 5 10 mph 1009.6mb 66f 63f
6:24 10 14 mph 1009.6mb 66f 62f
6:18 13 16 mph 1009.6mb 66f 62f
6:12 13 20 mph 1009.6mb 66f 62f
6:06 16 20 mph 1009.6mb 66f 62f
6:00 18 22 mph 1009.5mb 66f 62f
5:54 16 22 mph 1009.5mb 66f 62f
5:48 16 20 mph 1009.5mb 66f 61f
5:42 13 16 mph 1009.6mb 66f 61f
5:36 8 13 mph 1009.8mb 66f 61f
5:30 8 11 mph 1009.9mb 66f 61f
5:24 3 14 mph 1010mb 66f 62f
5:18 9 11 mph 1010mb 66f 62f
5:12 7 9 mph 1009.9mb 66f 62f
5:06 7 10 mph 1009.9mb 66f 62f
5:00 2 6 mph 1009.9mb 66f 62f
4:54 6 8 mph 1010mb 66f 61f
4:48 7 9 mph 1010mb 66f 61f
4:42 6 10 mph 1010mb 66f 60f
4:36 8 11 mph 1010mb 66f 60f
4:30 10 13 mph 1009.9mb 66f 60f
4:24 10 13 mph 1009.9mb 66f 60f
4:18 11 14 mph 1010mb 66f 60f
4:12 13 15 mph 1010.1mb 66f 59f
4:06 11 15 mph 1010.1mb 66f 60f
4:00 13 15 mph 1010.2mb 66f 60f
3:54 14 17 mph 1010.2mb 66f 60f
3:48 13 15 mph 1010.3mb 66f 60f
3:42 11 14 mph 1010.4mb 66f 60f
3:36 11 14 mph 1010.5mb 66f 60f
3:30 11 16 mph 1010.5mb 66f 60f
3:24 13 15 mph 1010.6mb 66f 60f
3:18 14 16 mph 1010.6mb 66f 60f
3:12 14 16 mph 1010.7mb 66f 59f
3:06 14 16 mph 1010.8mb 66f 59f
3:00 15 17 mph 1010.9mb 66f 59f
2:54 14 16 mph 1011mb 66f 59f
2:48 15 17 mph 1011.1mb 66f 59f
2:42 15 17 mph 1011.1mb 66f 59f
2:36 15 18 mph 1011.2mb 66f 59f
2:30 16 18 mph 1011.2mb 65f 59f
2:24 17 21 mph 1011.3mb 65f 59f
2:18 18 21 mph 1011.4mb 65f 59f
2:12 17 18 mph 1011.4mb 65f 59f
2:06 16 18 mph 1011.5mb 65f 59f
2:00 17 18 mph 1011.6mb 65f 59f
1:54 17 18 mph 1011.7mb 65f 59f
1:48 15 17 mph 1011.8mb 65f 59f
1:36 14 16 mph 1011.8mb 65f 59f
1:30 14 16 mph 1011.9mb 65f 59f
1:24 14 16 mph 1012mb 65f 59f
1:18 13 15 mph 1012mb 65f 59f
1:12 13 14 mph 1012mb 65f 59f
1:06 13 14 mph 1012mb 65f 59f
1:00 13 14 mph 1012.1mb 65f 59f
12:54 13 14 mph 1012.1mb 65f 59f
12:48 11 13 mph 1012.2mb 65f -
12:42 11 13 mph 1012.2mb 65f 59f
12:36 10 11 mph 1012.2mb 65f 59f
12:30 8 10 mph 1012.2mb 65f 60f
12:24 8 9 mph 1012.3mb 65f 59f
12:18 9 10 mph 1012.2mb 65f 59f
12:12 9 10 mph 1012.3mb 65f 60f
12:06 9 11 mph 1012.4mb 65f 60f
12:00 9 10 mph 1012.4mb 65f 60f
11:54 8 9 mph 1012.4mb 65f 60f
11:48 8 9 mph 1012.4mb 65f 60f
11:42 8
mph
1012.5mb 65f 60f
11:36 6 7 mph 1012.5mb 65f 61f
11:30 6
mph
1012.4mb 65f 61f
11:24 5 6 mph 1012.4mb 64f 61f
11:18 5 6 mph - - -
11:12 6 7 mph 1012.3mb 64f 60f
11:06 5 7 mph 1012.3mb 64f 60f
11:00 6 7 mph 1012.3mb 64f 60f
10:54 6 7 mph 1012.4mb 64f 60f
10:48 6 7 mph 1012.3mb 64f 61f
10:42 6 7 mph 1012.3mb 64f 61f
10:36 5 6 mph 1012.3mb 64f 61f
10:30 5 6 mph 1012.2mb 64f 61f
10:24 3 5 mph 1012.2mb 63f 61f
10:18 3 5 mph 1012.2mb 63f 61f
10:12 3
mph
1012.1mb 63f 61f
10:06 3 5 mph 1012.1mb 63f 61f
10:00 3 5 mph 1012mb 62f 61f
9:48 3 5 mph 1011.9mb 61f 61f
9:42 3 5 mph 1011.9mb 61f 61f
9:36 3 5 mph 1011.8mb 60f 61f
9:30 3 6 mph 1011.8mb 60f 61f
9:24 5 6 mph 1011.8mb 60f 61f
9:18 6
mph
1011.8mb 60f 61f
9:12 6 8 mph 1011.8mb 60f 61f
9:06 7 8 mph 1011.7mb 60f 61f
9:00 7 8 mph 1011.7mb 60f 61f
8:54 7 9 mph 1011.6mb 60f 61f
8:48 8
mph
1011.5mb 60f 61f
8:42 7 8 mph 1011.4mb 60f 62f
8:36 7
mph
1011.4mb 60f 62f
8:30 7 8 mph 1011.3mb 60f 62f
8:24 7 8 mph 1011.3mb 60f 62f
8:18 7 8 mph 1011.3mb 60f 62f
8:12 6
mph
1011.2mb 60f 62f
8:00 3 5 mph 1011.2mb 60f 63f
7:54 3 5 mph 1011.2mb 60f 64f
7:48 5 6 mph 1011.2mb 60f 63f
7:42 5 6 mph 1011.1mb 60f 63f
7:36 5 7 mph 1011mb 61f 63f
7:18 6
mph
1010.9mb 61f 62f
7:12 6 7 mph 1010.8mb 61f 62f
7:06 6 7 mph 1010.8mb 61f 61f
7:00 6
mph
1010.7mb 61f 61f
6:54 6 7 mph 1010.7mb 61f 60f
6:36 5 6 mph 1010.7mb 62f 59f
6:30 3 6 mph - - -
6:24 6 7 mph 1010.7mb 62f 59f
6:18 6 7 mph 1010.6mb 62f 59f
6:12 5 6 mph 1010.6mb 62f 59f
6:06 5 7 mph 1010.5mb 62f 59f
6:00 7
mph
1010.5mb 62f 59f
5:54 6 7 mph 1010.4mb 62f 59f
5:36 6 7 mph 1010.3mb 63f 59f
5:30 6 7 mph 1010.4mb 63f 59f
5:24 6 7 mph 1010.3mb 63f 59f
5:18 7
mph
1010.2mb 63f 59f
5:12 7
mph
1010.2mb 63f 59f
5:06 6 7 mph 1010.2mb 63f 59f
5:00 6 7 mph 1010.2mb 63f 60f
4:54 6
mph
1010.2mb 63f 60f
4:48 6
mph
1010.3mb 63f 59f
4:42 6 7 mph 1010.3mb 63f 59f
4:36 6 7 mph 1010.3mb 63f 60f
4:30 6 7 mph 1010.3mb 63f 60f
4:24 6 7 mph 1010.3mb 63f 60f
4:18 6
mph
1010.3mb 63f 60f
4:12 6
mph
1010.3mb 63f 60f
4:06 5 6 mph 1010.4mb 63f 60f
4:00 6 7 mph 1010.4mb 63f 60f
3:54 6 7 mph 1010.5mb 63f 60f
3:48 6 7 mph 1010.4mb 63f 60f
3:42 6
mph
1010.5mb 63f 60f
3:36 6
mph
1010.5mb 63f 60f
3:30 3 5 mph 1010.5mb 63f 60f
3:24 3 5 mph 1010.6mb 63f 60f
3:18 3 5 mph 1010.7mb - -
3:12 2 3 mph 1010.6mb 63f 60f
3:06 3
mph
1010.6mb 63f 61f
3:00 2 3 mph 1010.6mb 63f 61f
2:54 2 5 mph 1010.7mb 63f 60f
2:48 3 6 mph 1010.7mb 63f 61f
2:42  -  1 mph 1010.7mb 63f 60f
2:36 1 3 mph 1010.8mb 63f 60f
2:30 2 3 mph 1010.8mb 63f 60f
2:24 3 6 mph 1010.8mb 63f 60f
2:18 5 6 mph 1010.9mb 63f 60f
2:12 5 6 mph 1010.9mb 63f 60f
2:06 6
mph
1011mb 62f 60f
2:00 6 7 mph 1011mb 62f 60f
1:54 6 7 mph 1011.1mb 62f 60f
1:48 6 8 mph 1011.1mb - -
1:42 7
mph
1011.1mb 62f 61f
1:36 6
mph
1011.1mb 62f 61f
1:30 3 5 mph 1011.1mb 61f 61f
1:24 1 2 mph 1011.1mb 61f 61f
1:18 2 3 mph 1011.1mb 61f -
1:12 3
mph
1011.3mb 61f 61f
1:06 2 5 mph 1011.4mb 61f 61f
1:00 3
mph
1011.5mb 61f 61f
12:54 3 5 mph 1011.6mb 61f 61f
12:48 5
mph
1011.6mb 61f 61f
12:42 3 5 mph 1011.7mb 61f 61f
12:30 3 6 mph 1011.7mb 62f 61f
12:24 5 6 mph 1011.8mb 62f 61f
12:18 3 6 mph 1011.8mb 62f 61f
12:12 6 7 mph 1011.8mb 62f 61f
12:06 6 7 mph 1011.8mb 62f 61f
12:00 7 8 mph 1011.8mb 62f 61f
Sex 05/01 11:54 6 7 mph 1011.9mb 62f 61f
11:48 6 7 mph 1011.9mb 63f 61f
11:36 6 9 mph 1011.9mb 63f 61f
11:24 6 7 mph 1011.9mb 63f 61f
10:54 7 8 mph 1012mb 64f 61f
10:48 7 8 mph - - -
10:42 7 9 mph 1012mb 64f 61f
10:36 8 10 mph 1012mb 64f 61f
10:30 9 10 mph 1012mb 64f 61f
10:24 7 9 mph 1011.9mb 64f 62f
10:06 6 7 mph 1011.9mb 64f 61f
10:00 6 8 mph 1011.9mb 64f 61f
9:54 6 8 mph 1011.9mb 64f 61f
9:48 8 9 mph 1011.9mb 64f 61f
9:42 7 8 mph 1011.9mb 64f 61f
9:30 7 8 mph 1011.7mb 64f -
9:24 6 7 mph 1011.6mb 63f 61f
9:18 6 7 mph 1011.6mb 63f 61f
9:12 6 7 mph 1011.6mb 63f 61f
9:06 3
mph
1011.5mb 63f 61f
9:00 2
mph
1011.5mb 62f 61f
8:54 2 5 mph 1011.5mb 62f 61f
8:48 3 5 mph 1011.4mb 62f 61f
8:42 5 6 mph 1011.4mb 62f 61f
8:36 5 6 mph 1011.4mb 62f 61f
8:30 5 6 mph 1011.4mb 62f 62f
8:24 5 6 mph 1011.4mb 62f 61f
8:18 5 6 mph 1011.4mb 61f 61f
8:12 6
mph
1011.4mb 61f 61f
8:06 5 6 mph 1011.3mb 61f 61f
8:00 5 6 mph 1011.3mb 61f 61f
7:54 5 7 mph 1011.3mb 61f 61f
7:48 7 8 mph 1011.2mb 61f 61f
7:42 7 8 mph 1011.2mb 61f 61f
7:36 7 8 mph 1011.2mb 61f 62f
7:30 6 7 mph 1011.2mb 62f 62f
7:24 6 8 mph 1011.1mb 62f 62f
7:18 7 8 mph 1011mb 62f 62f
7:12 6 7 mph 1011mb 62f 62f
7:06 5 8 mph 1011mb 62f 62f
7:00 6 8 mph 1010.9mb 62f 62f
6:54 5 6 mph 1010.9mb 62f 63f
6:48 6 7 mph 1011mb 63f 63f
6:42 5 6 mph 1011.1mb 63f 63f
6:36 5 7 mph 1011.1mb 63f 63f
6:30 5 9 mph 1011.1mb 63f 62f
6:24 9 10 mph 1011.1mb 63f 62f
6:18 8 9 mph 1011mb 64f 62f
6:12 7 8 mph 1011mb 64f 62f
6:06 6 7 mph 1011.2mb 64f 62f
6:00 7 9 mph 1011.3mb 64f 62f
5:54 8 10 mph 1011.3mb 64f 62f
5:48 8 11 mph 1011.4mb 64f 62f
5:42 10 14 mph 1011.3mb 65f 62f
5:36 11 14 mph 1011.3mb 65f 62f
5:30 13 15 mph 1011.4mb 65f 61f
5:24 13 15 mph 1011.4mb 65f 61f
5:18 13 15 mph 1011.6mb 65f 61f
5:12 13 14 mph 1011.6mb 65f 61f
5:06 11 16 mph 1011.7mb 65f 61f
5:00 14 16 mph 1011.7mb 66f 61f
4:54 14 16 mph 1011.7mb 66f 61f
4:48 14 16 mph 1011.8mb 66f 61f
4:42 14 17 mph 1011.7mb 66f 61f
4:36 14 16 mph 1011.8mb 66f 61f
4:30 13 16 mph 1011.9mb 66f 61f
4:24 13 15 mph 1011.9mb 66f 61f
4:18 13 14 mph 1011.9mb 66f 61f
4:12 13 14 mph 1011.9mb 66f 61f
4:06 11 14 mph 1011.9mb 66f 61f
4:00 14
mph
1011.9mb 66f 61f
3:54 13 14 mph 1011.9mb 66f 61f
3:48 13 14 mph 1012mb 66f 61f
3:42 13 14 mph 1012.1mb 66f 61f
3:36 11 14 mph 1012.1mb 66f 61f
3:30 10 11 mph 1012.2mb 66f 61f
3:24 9 11 mph 1012.2mb 66f 61f
3:18 10 11 mph 1012.3mb 66f 61f
3:12 10 11 mph 1012.4mb 66f 61f
3:00 10 13 mph 1012.3mb 66f 61f
2:54 10
mph
1012.4mb 65f 61f
2:48 9 10 mph 1012.4mb 65f 61f
2:42 9 10 mph 1012.5mb 65f 62f
2:36 8 9 mph 1012.5mb 65f 62f
2:30 7 8 mph 1012.5mb 65f 62f
2:24 6 7 mph 1012.5mb 65f 62f
2:18 6 7 mph 1012.5mb 65f 62f
2:12 6 7 mph 1012.5mb 65f 62f
2:06 6 7 mph 1012.6mb 65f 62f
2:00 5 6 mph 1012.6mb 65f 62f
1:54 6 7 mph 1012.7mb 65f 61f
1:48 6 7 mph 1012.8mb 64f 61f
1:42 7 9 mph 1012.9mb 64f 61f
1:36 8 9 mph 1012.9mb 64f 60f
1:30 7 9 mph 1012.9mb 64f 60f
1:24 8 9 mph 1013mb 64f 60f
1:18 8 9 mph 1013mb 64f 60f
1:12 8 9 mph 1013.1mb 64f 59f
1:06 8 9 mph 1013mb 63f 59f
1:00 7 8 mph 1013mb 63f 59f
12:54 7 8 mph 1013.1mb 62f 59f
12:48 7
mph
1013.2mb 62f 59f
12:42 6 7 mph 1013.2mb 62f 59f
12:36 6 8 mph 1013.2mb 62f 59f
12:30 7 8 mph 1013.2mb 61f 58f
12:24 5 8 mph 1013.3mb 61f 58f
12:18 6 7 mph 1013.4mb 61f 58f
12:12 6 7 mph 1013.4mb 61f 58f
12:06 7 8 mph 1013.4mb 61f 57f
12:00 8 9 mph 1013.5mb 61f 57f
11:54 6 8 mph 1013.5mb 61f 57f
11:48 7
mph
1013.5mb 61f 57f
11:42 5 7 mph 1013.4mb 61f 57f
11:36 6 7 mph 1013.4mb 61f 57f
11:30 6 7 mph 1013.4mb 61f 57f
11:24 6 7 mph 1013.4mb 61f 57f
11:18 6 7 mph 1013.4mb 61f -
11:12 6 7 mph 1013.5mb 61f 57f
11:06 6 7 mph 1013.5mb 61f 57f
11:00 6 7 mph 1013.4mb 61f 57f
10:54 5 7 mph 1013.5mb 61f 57f
10:48 6 7 mph - - -
10:42 7 9 mph 1013.4mb 61f 56f
10:36 7 8 mph 1013.3mb 61f 57f
10:30 7
mph
1013.3mb 61f 57f
10:24 6 7 mph 1013.3mb 61f 57f
10:18 6 7 mph 1013.2mb 61f 57f
10:12 6 7 mph 1013.2mb 61f 57f
10:06 6 7 mph 1013.2mb 61f 57f
10:00 5 6 mph 1013.2mb 61f 57f
9:54 5 6 mph 1013.2mb 61f 57f
9:48 6
mph
1013.2mb 61f 56f
9:42 3 6 mph 1013.1mb 61f 57f
9:36 3 6 mph 1013.1mb 61f 56f
9:30 5 6 mph 1013.1mb 61f 56f
9:24 3 5 mph 1013mb 61f 56f
9:18 2 5 mph 1013mb 61f 56f
9:12 2 5 mph 1012.9mb 61f 56f
9:06  -  3 mph 1012.9mb 61f 57f
9:00 3
mph
1012.8mb 62f 57f
8:54 1 2 mph 1012.7mb 62f 57f
8:48 2 5 mph 1012.7mb 62f 56f
8:42  -  2 mph 1012.7mb 62f 57f
8:36  -  2 mph 1012.6mb 62f 57f
8:30  -  3 mph 1012.6mb 62f 56f
8:24 2 5 mph 1012.6mb 62f 56f
8:18 5 6 mph 1012.6mb 63f 56f
8:12 5 6 mph 1012.5mb 63f 56f
8:06 5 7 mph 1012.5mb 63f 56f
8:00 5 6 mph 1012.5mb 63f 56f
7:54 5
mph
1012.5mb 63f 56f
7:48 3 5 mph 1012.5mb 63f 56f
7:42 2 3 mph 1012.4mb 63f 56f
7:36 2 3 mph 1012.4mb 63f 56f
7:24 1 3 mph 1012.3mb 63f 57f
7:18 3 5 mph 1012.3mb 63f 57f
7:12 3
mph
1012.2mb 63f 57f
7:06 3
mph
1012.2mb 63f 57f
7:00 3 5 mph 1012.2mb 63f 57f
6:54 3 6 mph 1012.1mb 63f 57f
6:48 3 5 mph 1012.1mb 63f 57f
6:42 2 5 mph 1012mb 63f 57f
6:36  -  5 mph 1012mb 63f 57f
6:30 3 5 mph 1011.9mb 63f 57f
6:18 3
mph
1011.9mb 63f 57f
6:12  -  mph 1011.8mb 63f 57f
6:06  -  2 mph 1011.8mb 63f 57f
6:00 2 5 mph 1011.8mb 63f 57f
5:54 3 6 mph 1011.7mb 63f 57f
5:48 5 6 mph 1011.6mb 63f 57f
5:42 5 7 mph 1011.6mb 63f 57f
5:36 6 7 mph 1011.5mb 63f 58f
5:30 6 7 mph 1011.5mb 63f 58f
5:24 7 8 mph 1011.5mb 63f 58f
5:18 7 8 mph 1011.5mb 64f 58f
5:12 7 8 mph 1011.5mb 64f 58f
5:06 3 5 mph 1011.4mb 64f 59f
5:00 3 5 mph 1011.4mb 64f 59f
4:54 3 6 mph 1011.5mb 64f 59f
4:48 6 7 mph 1011.5mb 64f 59f
4:42 6
mph
1011.5mb 64f 59f
4:36 5
mph
1011.5mb 64f 59f
4:30 5 6 mph 1011.6mb 64f 59f
4:24 3 5 mph 1011.6mb 64f 59f
4:18 2 3 mph 1011.6mb 64f 59f
4:12 1 2 mph 1011.6mb 64f 59f
4:06 2 3 mph 1011.6mb 64f 60f
4:00 2 3 mph 1011.6mb 64f 60f
3:54 2 3 mph 1011.6mb 64f 60f
3:48 2
mph
1011.6mb 64f 60f
3:42  -  mph 1011.6mb 64f 59f
3:36  -  mph 1011.7mb 64f 59f
3:30  -  mph 1011.6mb 64f 60f
3:24  -  1 mph 1011.6mb 64f 60f
3:18  -  2 mph 1011.6mb 64f 60f
3:12  -  1 mph 1011.6mb 64f 60f
3:06  -  1 mph 1011.6mb 64f 60f
3:00  -  1 mph 1011.6mb 64f 60f
2:54  -  2 mph 1011.5mb 64f 60f
2:48 1 3 mph 1011.5mb 64f 60f
2:42 3
mph
1011.5mb 64f 60f
2:36 3
mph
1011.5mb 64f 60f
2:30 5
mph
1011.5mb 63f 60f
2:24 5 6 mph 1011.6mb 63f 60f
2:18 5 7 mph 1011.5mb 63f 60f
2:12 6 7 mph 1011.5mb 63f 60f
2:06 7
mph
1011.6mb 63f 60f
2:00 7 8 mph 1011.6mb 63f 60f
1:54 7 8 mph 1011.6mb 63f 60f
1:48 7 8 mph 1011.6mb 63f 60f
1:30 7 8 mph 1011.7mb 63f 60f
1:24 7 8 mph 1011.7mb 63f 60f
1:18 6 8 mph 1011.6mb 63f 60f
1:12 5
mph
1011.7mb 63f 61f
1:06 1
mph
1011.7mb 63f 61f
1:00  -  mph 1011.7mb 63f 60f
12:54  -  1 mph 1011.6mb 63f 61f
12:48  -  2 mph 1011.6mb 63f 61f
12:42 2 3 mph 1011.6mb 63f 61f
12:36 2 3 mph 1011.6mb 63f 61f
12:30 2 3 mph 1011.6mb 63f 61f
12:18 3
mph
1011.6mb 63f 61f
12:12 2
mph
1011.6mb 63f -
12:00 1
mph
1011.5mb 63f 61f
Qui 04/30 11:24 7 8 mph 1011.5mb 63f 61f
10:54 8 9 mph 1011.5mb 62f 61f
10:48 8 9 mph 1011.4mb 62f 61f
10:42 8 9 mph 1011.4mb 61f 60f
10:36 8 9 mph 1011.3mb 61f 60f
10:30 8 9 mph 1011.3mb 61f 61f
10:24 8 9 mph 1011.3mb 61f 61f
10:18 7 9 mph 1011.2mb 61f 61f
10:12 8 10 mph 1011.2mb 61f 61f
10:06 8 9 mph 1011.2mb 61f 61f
10:00 9 10 mph 1011.2mb 61f 61f
9:54 9 10 mph 1011.2mb 61f 61f
9:48 10 11 mph 1011.2mb 61f -
9:42 8 10 mph 1011.2mb 61f 61f
9:36 9
mph
1011.2mb 61f 61f
9:30 7 8 mph 1011.1mb 61f 61f
9:24 6 7 mph 1010.9mb 61f 61f
9:18 5 6 mph 1010.8mb 61f -
9:12 6
mph
1010.8mb 61f 61f